Terminal Aerodrome Forecast
Issued by NWS Chicago, IL

Home | Current Version | Previous Version | Text Only | Print | Product List | Glossary Off
Versions: 1 2 3 4 5 6 7 8 9 10 11 12 13 14 15 16 17 18 19 20 21 22 23 24 25 26 27 28 29 30 31 32

575
FTUS43 KLOT 201003 AAB
TAFRFD
TAF AMD
KRFD 201003Z 2010/2106 VRB04KT P6SM SCT250
     FM201300 19006KT P6SM SCT020 BKN250
     FM201800 20012KT P6SM SCT040
     FM210200 18006KT P6SM SCT250=

USA.gov is the U.S. government's official web portal to all federal, state and local government web resources and services.